Time;durP1;ratioP1;P1;durP2;ratioP2;P2;SDS_P1;SDS_P2;PMS_P1;PMS_P2;Temp;Humidity;BMP_temperature;BMP_pressure;BME280_temperature;BME280_humidity;BME280_pressure;Samples;Min_cycle;Max_cycle;Signal;HPM_P1;HPM_P2
2022/09/20 00:00:20;;;;;;;;;;;;;;;9.13;81.93;100835.59;10489407;28;20049;-77
2022/09/20 00:05:24;;;;;;;11.55;2.05;;;;;;;9.09;81.59;100837.63;10445376;28;19925;-78
2022/09/20 00:10:28;;;;;;;11.05;2.13;;;;;;;8.72;82.20;100842.78;10439361;28;20042;-77
2022/09/20 00:15:31;;;;;;;15.38;2.50;;;;;;;8.69;82.11;100844.78;10424569;28;20049;-77
2022/09/20 00:20:35;;;;;;;;;;;;;;;8.96;80.85;100837.59;10438156;28;20193;-77
2022/09/20 00:25:38;;;;;;;11.52;2.42;;;;;;;8.77;81.12;100846.00;10434461;28;19921;-78
2022/09/20 00:30:40;;;;;;;;;;;;;;;8.82;80.74;100840.34;10446845;28;20064;-77
2022/09/20 00:35:45;;;;;;;11.23;1.88;;;;;;;9.10;80.12;100850.06;10447579;28;20114;-77
2022/09/20 00:40:47;;;;;;;13.70;2.25;;;;;;;8.80;81.00;100843.13;10436216;28;20103;-78
2022/09/20 00:45:50;;;;;;;8.10;1.90;;;;;;;8.73;80.96;100851.66;10437651;28;20038;-78
2022/09/20 00:50:59;;;;;;;15.90;1.52;;;;;;;8.74;81.44;100850.69;10434970;28;20056;-77
2022/09/20 00:56:06;;;;;;;12.55;2.28;;;;;;;8.83;80.97;100850.06;10430574;28;20041;-77
2022/09/20 01:01:10;;;;;;;10.77;2.03;;;;;;;8.90;80.93;100842.50;10437787;28;20124;-78
2022/09/20 01:06:16;;;;;;;17.83;2.08;;;;;;;9.05;79.90;100847.72;10430861;28;20042;-77
2022/09/20 01:11:19;;;;;;;11.38;3.63;;;;;;;9.05;80.11;100853.06;10454003;28;20076;-77
2022/09/20 01:16:23;;;;;;;7.50;1.60;;;;;;;9.10;79.92;100855.41;10427437;23;20128;-77
2022/09/20 01:21:29;;;;;;;11.23;2.45;;;;;;;8.79;81.32;100856.63;10392380;28;20072;-76
2022/09/20 01:26:52;;;;;;;12.20;1.77;;;;;;;8.71;81.46;100861.63;10383592;28;20384;-77
2022/09/20 01:32:00;;;;;;;14.00;1.60;;;;;;;8.84;81.12;100859.84;10403248;28;20049;-77
2022/09/20 01:37:11;;;;;;;9.45;1.40;;;;;;;8.89;80.80;100871.13;10401068;28;20049;-78
2022/09/20 01:42:14;;;;;;;9.60;1.58;;;;;;;8.41;82.54;100865.28;10394292;28;20325;-78
2022/09/20 01:47:31;;;;;;;12.43;1.40;;;;;;;8.60;82.01;100867.69;10395626;28;20549;-78
2022/09/20 01:52:53;;;;;;;7.30;1.85;;;;;;;8.65;81.97;100862.88;10413446;28;20187;-78
2022/09/20 01:58:10;;;;;;;10.05;2.58;;;;;;;8.53;81.95;100864.53;10392264;28;20118;-78
2022/09/20 02:04:08;;;;;;;8.57;1.85;;;;;;;8.65;81.37;100870.91;10395034;28;20038;-77
2022/09/20 02:09:29;;;;;;;6.45;1.52;;;;;;;8.58;81.83;100875.81;10239163;29;20126;-78
2022/09/20 02:14:45;;;;;;;8.68;1.50;;;;;;;8.50;82.07;100874.56;10368644;28;20113;-78
2022/09/20 02:20:07;;;;;;;8.52;1.83;;;;;;;8.54;81.91;100866.25;10403988;28;20136;-78
2022/09/20 02:25:24;;;;;;;7.10;1.60;;;;;;;8.63;81.51;100866.63;10397438;28;20132;-78
2022/09/20 02:30:42;;;;;;;10.32;1.92;;;;;;;8.42;82.39;100876.84;10406019;28;20498;-78
2022/09/20 02:36:08;;;;;;;10.32;1.52;;;;;;;8.42;82.96;100874.19;10412806;28;20065;-79
2022/09/20 02:41:37;;;;;;;8.20;1.65;;;;;;;8.52;82.51;100870.84;10379535;28;20125;-78
2022/09/20 02:46:47;;;;;;;14.13;2.00;;;;;;;8.60;82.36;100859.63;10401140;28;20120;-79
2022/09/20 02:51:56;;;;;;;9.95;1.40;;;;;;;8.46;82.67;100871.25;10397464;28;20083;-79
2022/09/20 02:57:03;;;;;;;8.45;1.60;;;;;;;8.52;81.64;100864.63;10393810;28;20042;-79
2022/09/20 03:02:13;;;;;;;7.90;1.70;;;;;;;8.57;81.47;100870.56;10375856;28;20042;-77
2022/09/20 03:07:25;;;;;;;7.03;1.65;;;;;;;8.11;83.29;100871.63;10391273;28;20049;-79
2022/09/20 03:12:39;;;;;;;10.38;2.03;;;;;;;8.52;82.02;100870.84;10394523;28;20038;-77
2022/09/20 03:17:50;;;;;;;6.13;1.23;;;;;;;8.34;82.74;100878.22;10394457;28;20056;-78
2022/09/20 03:23:00;;;;;;;7.60;1.90;;;;;;;8.54;81.83;100878.78;10394675;28;20132;-78
2022/09/20 03:28:23;;;;;;;8.90;1.80;;;;;;;8.75;81.03;100880.06;10389040;28;20137;-78
2022/09/20 03:33:38;;;;;;;6.20;1.48;;;;;;;8.46;82.06;100889.13;10410231;28;20060;-78
2022/09/20 03:39:10;;;;;;;11.20;1.70;;;;;;;8.65;81.72;100886.13;10395923;28;20041;-78
2022/09/20 03:44:29;;;;;;;5.25;1.50;;;;;;;8.38;82.36;100893.13;10395073;28;20075;-77
2022/09/20 03:49:53;;;;;;;9.25;1.33;;;;;;;8.54;81.87;100898.38;10391171;28;20622;-77
2022/09/20 03:55:37;;;;;;;7.95;1.58;;;;;;;8.32;83.08;100898.00;10390006;28;20129;-77
2022/09/20 04:00:54;;;;;;;9.65;2.33;;;;;;;8.36;83.48;100902.19;10392364;28;20048;-77
2022/09/20 04:06:30;;;;;;;12.13;2.03;;;;;;;8.53;83.11;100903.81;10370918;28;20116;-78
2022/09/20 04:11:44;;;;;;;7.00;1.88;;;;;;;8.66;82.56;100898.56;10373802;28;20057;-78
2022/09/20 04:16:55;;;;;;;7.93;1.33;;;;;;;8.82;81.95;100905.47;10385497;28;20050;-77
2022/09/20 04:21:59;;;;;;;12.20;1.90;;;;;;;8.81;82.16;100902.91;10386200;28;20088;-78
2022/09/20 04:27:10;;;;;;;8.50;2.28;;;;;;;8.94;81.26;100898.47;10385481;28;20051;-78
2022/09/20 04:32:18;;;;;;;11.35;1.90;;;;;;;8.90;81.07;100905.00;10385191;28;20574;-78
2022/09/20 04:37:30;;;;;;;5.68;1.35;;;;;;;8.84;81.60;100908.06;10392219;28;20050;-78
2022/09/20 04:43:12;;;;;;;6.65;1.60;;;;;;;8.83;81.64;100909.91;10386124;28;20042;-78
2022/09/20 04:48:55;;;;;;;11.32;1.80;;;;;;;8.84;81.72;100916.13;10397519;28;20440;-78
2022/09/20 04:54:33;;;;;;;8.35;1.35;;;;;;;8.90;81.47;100929.09;10370272;28;20058;-77
2022/09/20 04:59:54;;;;;;;7.72;1.63;;;;;;;8.84;81.40;100930.38;10384167;28;20050;-78
2022/09/20 05:05:30;;;;;;;8.18;1.42;;;;;;;8.76;81.24;100930.00;10398950;28;20052;-78
2022/09/20 05:11:01;;;;;;;8.63;1.83;;;;;;;8.68;81.33;100940.34;10388975;28;20526;-77
2022/09/20 05:16:16;;;;;;;9.82;2.20;;;;;;;8.59;81.62;100939.13;10403276;28;20120;-78
2022/09/20 05:21:48;;;;;;;9.02;2.28;;;;;;;8.56;81.65;100954.53;10375351;28;20042;-77
2022/09/20 05:27:07;;;;;;;9.20;2.50;;;;;;;8.48;81.85;100960.38;10385527;28;20161;-77
2022/09/20 05:32:19;;;;;;;10.52;2.65;;;;;;;8.48;82.15;100967.56;10388018;28;20383;-76
2022/09/20 05:37:37;;;;;;;11.32;3.35;;;;;;;8.48;82.63;100971.09;10408745;28;20051;-78
2022/09/20 05:42:47;;;;;;;9.35;3.60;;;;;;;8.44;82.50;100972.19;10397699;28;20037;-77
2022/09/20 05:47:56;;;;;;;9.23;3.78;;;;;;;8.57;82.53;100970.50;10409517;28;20045;-77
2022/09/20 05:53:06;;;;;;;9.70;4.00;;;;;;;8.63;82.39;100977.28;10404280;28;20051;-78
2022/09/20 05:58:28;;;;;;;10.98;4.15;;;;;;;8.91;81.61;100981.72;10392447;28;20049;-78
2022/09/20 06:03:39;;;;;;;13.90;4.03;;;;;;;8.95;80.88;100991.28;10377882;28;20048;-78
2022/09/20 06:09:00;;;;;;;11.35;3.58;;;;;;;9.28;79.51;100984.69;10408168;28;20051;-78
2022/09/20 06:14:18;;;;;;;12.63;3.80;;;;;;;9.36;79.38;100994.91;10410195;28;20494;-78
2022/09/20 06:19:33;;;;;;;11.70;3.70;;;;;;;9.41;78.84;100990.09;10400238;28;20052;-79
2022/09/20 06:24:39;;;;;;;9.35;3.40;;;;;;;9.48;78.63;100994.09;10387984;28;20066;-76
2022/09/20 06:29:49;;;;;;;9.95;3.60;;;;;;;9.54;78.04;100990.97;10393835;28;20101;-78
2022/09/20 06:34:54;;;;;;;9.95;3.20;;;;;;;9.56;78.00;100996.25;10405114;28;20383;-79
2022/09/20 06:45:23;;;;;;;9.80;3.45;;;;;;;9.94;77.81;100999.06;10357034;28;20058;-79
2022/09/20 06:50:27;;;;;;;;;;;;;;;9.90;78.26;100992.16;10384920;28;20077;-78
2022/09/20 06:55:36;;;;;;;13.18;2.83;;;;;;;9.27;81.59;101007.09;10399245;28;20524;-77
2022/09/20 07:00:39;;;;;;;14.70;3.05;;;;;;;9.41;83.42;101015.09;10401596;28;20128;-79
2022/09/20 07:05:43;;;;;;;14.13;3.15;;;;;;;9.06;84.56;101012.03;10400338;28;20037;-78
2022/09/20 07:10:47;;;;;;;16.67;3.13;;;;;;;9.23;84.13;101029.69;10378870;28;20415;-77
2022/09/20 07:15:50;;;;;;;14.85;3.00;;;;;;;9.55;83.50;101029.41;10389838;28;20042;-78
2022/09/20 07:20:54;;;;;;;11.32;2.67;;;;;;;9.98;83.06;101039.94;10387090;28;20049;-76
2022/09/20 07:25:58;;;;;;;10.02;2.55;;;;;;;10.02;81.90;101030.75;10390007;28;20038;-78
2022/09/20 07:31:01;;;;;;;9.90;3.05;;;;;;;9.87;81.86;101049.63;10406082;23;20383;-78
2022/09/20 07:36:06;;;;;;;9.48;3.25;;;;;;;9.75;82.36;101049.53;10450252;28;20057;-78
2022/09/20 07:41:09;;;;;;;12.95;3.10;;;;;;;9.85;82.89;101058.69;10428043;28;20057;-79
2022/09/20 07:46:13;;;;;;;7.63;2.85;;;;;;;10.23;82.56;101055.22;10385684;28;20058;-78
2022/09/20 07:51:17;;;;;;;9.50;3.13;;;;;;;10.48;82.43;101057.94;10406486;28;20129;-78
2022/09/20 07:56:20;;;;;;;13.93;3.85;;;;;;;10.46;81.52;101067.09;10402189;28;20050;-78
2022/09/20 08:01:22;;;;;;;;;;;;;;;10.65;80.21;101074.72;10401922;28;20045;-78
2022/09/20 08:06:27;;;;;;;13.73;1.95;;;;;;;10.36;78.01;101075.75;10398361;28;19971;-78
2022/09/20 08:11:30;;;;;;;11.05;2.80;;;;;;;10.77;77.97;101074.69;10392285;28;20091;-77
2022/09/20 08:16:36;;;;;;;9.48;3.28;;;;;;;11.18;78.61;101078.94;10389566;28;20543;-78
2022/09/20 08:21:41;;;;;;;12.55;2.00;;;;;;;11.95;79.16;101081.34;10423324;28;20068;-79
2022/09/20 08:26:45;;;;;;;6.53;1.80;;;;;;;11.73;76.83;101082.09;10454877;28;20033;-79
2022/09/20 08:31:47;;;;;;;7.68;2.55;;;;;;;11.53;73.37;101088.13;10398706;28;20076;-78
2022/09/20 08:36:55;;;;;;;8.55;1.90;;;;;;;12.53;75.71;101084.97;10415680;28;20034;-78
2022/09/20 08:42:11;;;;;;;17.70;2.03;;;;;;;11.85;73.28;101088.41;10410760;28;20087;-78
2022/09/20 08:47:21;;;;;;;6.53;1.80;;;;;;;12.27;71.86;101088.78;10410451;28;20064;-77
2022/09/20 08:52:30;;;;;;;2.88;1.52;;;;;;;12.50;69.01;101085.19;10407340;28;20072;-77
2022/09/20 08:57:38;;;;;;;9.18;1.83;;;;;;;12.86;69.96;101082.41;10425265;28;20065;-78
2022/09/20 09:02:41;;;;;;;5.40;1.30;;;;;;;13.11;65.96;101081.28;10408095;28;20037;-79
2022/09/20 09:07:46;;;;;;;5.97;1.48;;;;;;;13.58;65.86;101077.47;10399946;28;20810;-78
2022/09/20 09:12:50;;;;;;;5.35;1.30;;;;;;;14.09;62.74;101073.19;10415408;28;20045;-78
2022/09/20 09:17:53;;;;;;;8.60;1.52;;;;;;;14.88;60.93;101078.97;10424766;28;20046;-78
2022/09/20 09:23:03;;;;;;;6.47;1.58;;;;;;;14.73;63.53;101075.78;10405639;28;20076;-78
2022/09/20 09:28:14;;;;;;;10.00;1.20;;;;;;;15.43;60.10;101081.31;10408818;28;20420;-78
2022/09/20 09:33:26;;;;;;;6.68;1.20;;;;;;;14.58;58.51;101077.09;10393416;28;20037;-78
2022/09/20 09:38:31;;;;;;;;;;;;;;;15.12;59.11;101075.09;10411641;28;20498;-78
2022/09/20 09:43:36;;;;;;;6.13;1.05;;;;;;;15.62;57.62;101081.34;10407645;28;20020;-78
2022/09/20 09:48:38;;;;;;;5.75;1.60;;;;;;;16.29;56.44;101085.09;10415543;28;20125;-77
2022/09/20 09:53:45;;;;;;;4.47;0.90;;;;;;;15.63;55.47;101093.03;10409966;28;20080;-78
2022/09/20 09:59:06;;;;;;;4.68;0.90;;;;;;;16.06;56.19;101089.06;10395294;28;20041;-78
2022/09/20 10:04:15;;;;;;;4.68;0.98;;;;;;;16.42;55.15;101089.34;10394639;28;20046;-78
2022/09/20 10:09:29;;;;;;;3.92;0.88;;;;;;;17.40;53.36;101088.03;10395171;28;20435;-79
2022/09/20 10:14:44;;;;;;;6.65;1.10;;;;;;;16.14;52.91;101081.94;10405006;28;20053;-77
2022/09/20 10:20:03;;;;;;;5.95;1.60;;;;;;;15.13;56.42;101085.75;10404571;28;20068;-78
2022/09/20 10:25:25;;;;;;;8.02;1.33;;;;;;;15.76;56.15;101082.78;10410075;28;20070;-78
2022/09/20 10:30:34;;;;;;;1.75;0.70;;;;;;;15.53;56.11;101081.34;10394095;28;20049;-77
2022/09/20 10:35:54;;;;;;;3.78;0.60;;;;;;;15.09;55.62;101084.34;10400883;28;20099;-77
2022/09/20 10:46:41;;;;;;;5.07;0.90;;;;;;;14.30;57.41;101100.22;10398644;28;20128;-77
2022/09/20 10:51:54;;;;;;;3.22;0.82;;;;;;;13.35;63.77;101095.50;10397706;28;20073;-77
2022/09/20 10:57:12;;;;;;;5.32;1.00;;;;;;;12.52;67.96;101118.28;10379670;28;20076;-78
2022/09/20 11:02:33;;;;;;;3.30;1.00;;;;;;;12.35;68.63;101103.41;10402654;28;20049;-78
2022/09/20 11:07:48;;;;;;;8.73;1.40;;;;;;;12.50;70.07;101112.13;10408789;28;20120;-78
2022/09/20 11:12:58;;;;;;;4.68;0.80;;;;;;;13.40;67.51;101108.66;10412172;28;20073;-77
2022/09/20 11:18:08;;;;;;;5.95;0.90;;;;;;;14.81;62.08;101107.56;10400613;28;20041;-77
2022/09/20 11:23:17;;;;;;;3.50;0.70;;;;;;;16.00;57.52;101104.06;10400989;28;20073;-77
2022/09/20 11:28:26;;;;;;;1.58;1.10;;;;;;;17.27;54.46;101107.38;10398327;28;20477;-77
2022/09/20 11:33:32;;;;;;;2.50;0.68;;;;;;;18.41;51.79;101094.13;10397550;28;20144;-77
2022/09/20 11:38:47;;;;;;;4.00;0.57;;;;;;;15.46;60.49;101113.53;10396235;28;20050;-76
2022/09/20 11:44:03;;;;;;;1.20;0.57;;;;;;;13.78;66.50;101120.84;10400112;28;20065;-76
2022/09/20 11:49:14;;;;;;;2.85;0.90;;;;;;;13.68;66.07;101120.72;10384259;28;20088;-76
2022/09/20 11:54:35;;;;;;;5.47;0.90;;;;;;;14.08;64.66;101104.75;10405392;28;20045;-75
2022/09/20 11:59:41;;;;;;;3.53;0.30;;;;;;;14.33;59.44;101110.78;10403237;28;20132;-76
2022/09/20 12:04:51;;;;;;;4.18;0.65;;;;;;;15.92;56.06;101096.63;10390439;28;20329;-77
2022/09/20 12:09:59;;;;;;;1.42;0.40;;;;;;;15.41;54.42;101110.38;10393572;28;20561;-76
2022/09/20 12:15:06;;;;;;;2.67;0.57;;;;;;;16.35;53.14;101098.06;10392838;28;20046;-77
2022/09/20 12:20:43;;;;;;;3.63;0.88;;;;;;;17.44;49.92;101089.41;10387657;28;20529;-77
2022/09/20 12:26:01;;;;;;;1.13;0.40;;;;;;;16.41;51.43;101088.50;10393201;28;20053;-77
2022/09/20 12:31:47;;;;;;;4.35;0.80;;;;;;;17.22;48.45;101094.28;10396164;28;20037;-77
2022/09/20 12:37:18;;;;;;;4.30;0.75;;;;;;;17.28;48.25;101090.09;10419872;28;20045;-77
2022/09/20 12:42:30;;;;;;;1.95;0.60;;;;;;;18.60;46.80;101093.06;10408763;28;20041;-77
2022/09/20 12:47:37;;;;;;;1.90;0.52;;;;;;;20.10;44.51;101074.22;10391131;28;20452;-77
2022/09/20 12:52:52;;;;;;;2.60;0.30;;;;;;;18.91;44.78;101079.81;10423003;28;20065;-77
2022/09/20 12:58:00;;;;;;;4.72;0.55;;;;;;;18.10;46.70;101086.41;10430086;28;20045;-77
2022/09/20 13:03:22;;;;;;;2.22;0.35;;;;;;;22.41;37.70;101081.28;10432862;28;20049;-78
2022/09/20 13:08:28;;;;;;;3.15;0.60;;;;;;;24.63;34.52;101079.09;10415040;28;20111;-78
2022/09/20 13:13:39;;;;;;;2.45;0.70;;;;;;;25.90;31.08;101064.91;10417434;28;20106;-77
2022/09/20 13:18:44;;;;;;;4.95;0.70;;;;;;;22.27;35.95;101080.19;10422350;28;20108;-78
2022/09/20 13:23:51;;;;;;;5.25;0.70;;;;;;;20.89;37.95;101082.66;10409807;28;20121;-78
2022/09/20 13:28:55;;;;;;;2.08;0.50;;;;;;;22.87;35.29;101072.09;10406400;28;20065;-77
2022/09/20 13:34:20;;;;;;;2.75;0.50;;;;;;;21.22;36.22;101080.69;10403759;28;20406;-78
2022/09/20 13:39:30;;;;;;;4.97;1.25;;;;;;;19.32;40.34;101074.56;10419863;28;20074;-78
2022/09/20 13:44:36;;;;;;;1.42;0.47;;;;;;;20.55;38.63;101072.84;10403489;28;20483;-78
2022/09/20 13:49:43;;;;;;;6.68;1.10;;;;;;;22.94;36.32;101070.28;10400530;28;20048;-78
2022/09/20 13:54:47;;;;;;;4.50;1.48;;;;;;;19.72;40.64;101078.47;10397343;28;20113;-79
2022/09/20 13:59:51;;;;;;;3.88;0.93;;;;;;;17.27;46.88;101082.94;10399129;28;20132;-79
2022/09/20 14:04:58;;;;;;;4.22;0.70;;;;;;;16.28;50.48;101096.94;10402398;28;20048;-76
2022/09/20 14:10:01;;;;;;;2.72;0.47;;;;;;;15.59;49.94;101100.59;10422780;28;20463;-77
2022/09/20 14:15:08;;;;;;;5.43;0.50;;;;;;;15.05;54.98;101107.22;10409940;28;20403;-79
2022/09/20 14:20:16;;;;;;;2.08;0.68;;;;;;;14.91;55.76;101107.59;10403505;28;20678;-80
2022/09/20 14:25:24;;;;;;;2.45;0.60;;;;;;;16.20;52.65;101102.19;10404037;28;20046;-78
2022/09/20 14:30:29;;;;;;;1.33;0.38;;;;;;;17.76;48.82;101102.50;10402701;28;20056;-78
2022/09/20 14:35:34;;;;;;;5.30;0.68;;;;;;;18.79;42.82;101092.03;10403767;28;20438;-78
2022/09/20 14:40:42;;;;;;;3.80;0.77;;;;;;;18.44;44.86;101110.13;10407041;28;20038;-79
2022/09/20 14:45:53;;;;;;;1.77;0.20;;;;;;;17.02;47.72;101098.03;10396416;28;20045;-78
2022/09/20 14:51:21;;;;;;;1.88;0.38;;;;;;;16.13;49.49;101109.19;10395936;28;20380;-79
2022/09/20 14:56:34;;;;;;;1.90;0.30;;;;;;;16.33;49.63;101116.34;10402147;28;20041;-78
2022/09/20 15:01:40;;;;;;;3.67;0.65;;;;;;;16.04;49.54;101124.44;10408350;28;20076;-79
2022/09/20 15:12:12;;;;;;;1.42;0.57;;;;;;;15.91;51.23;101127.44;10229471;28;20048;-79
2022/09/20 15:17:17;;;;;;;2.78;0.50;;;;;;;15.78;51.66;101124.16;10244990;28;20835;-78
2022/09/20 15:22:20;;;;;;;4.20;0.57;;;;;;;15.97;52.20;101122.47;10257087;23;20050;-80
2022/09/20 15:27:25;;;;;;;1.90;1.00;;;;;;;16.44;54.19;101118.03;10330375;28;20050;-80
2022/09/20 15:32:30;;;;;;;2.97;0.80;;;;;;;16.49;54.27;101123.88;10317686;28;20046;-80
2022/09/20 15:37:33;;;;;;;12.88;5.28;;;;;;;16.09;55.51;101135.72;10309195;28;20562;-79
2022/09/20 15:42:40;;;;;;;2.33;1.35;;;;;;;15.61;56.60;101127.53;10316263;28;20042;-79
2022/09/20 15:47:43;;;;;;;2.90;0.98;;;;;;;15.37;57.38;101130.59;10302337;28;20142;-80
2022/09/20 15:52:50;;;;;;;3.17;1.00;;;;;;;15.33;58.11;101134.53;10314359;28;20058;-79
2022/09/20 15:57:54;;;;;;;3.90;1.08;;;;;;;15.44;57.69;101134.47;10302100;28;20051;-79
2022/09/20 16:02:57;;;;;;;5.80;1.13;;;;;;;15.32;56.67;101132.84;10279105;28;20050;-78
2022/09/20 16:08:00;;;;;;;2.97;0.77;;;;;;;15.20;55.62;101141.06;10281186;28;20036;-80
2022/09/20 16:13:06;;;;;;;1.77;0.40;;;;;;;15.20;55.09;101132.09;10281837;28;20137;-79
2022/09/20 16:23:29;;;;;;;8.77;0.65;;;;;;;15.30;53.90;101135.66;10279871;28;20047;-80
2022/09/20 16:28:33;;;;;;;1.88;0.47;;;;;;;15.29;54.83;101136.66;10281602;28;20167;-79
2022/09/20 16:33:36;;;;;;;2.58;0.55;;;;;;;15.18;53.46;101145.75;10265425;28;20059;-79
2022/09/20 16:38:43;;;;;;;2.47;0.88;;;;;;;15.05;54.43;101147.81;10276553;28;20047;-80
2022/09/20 16:43:51;;;;;;;3.15;0.60;;;;;;;14.80;54.89;101149.97;10280000;28;20042;-80
2022/09/20 16:48:55;;;;;;;2.20;0.95;;;;;;;14.53;55.95;101149.63;10262426;28;20306;-80
2022/09/20 16:54:00;;;;;;;2.00;0.70;;;;;;;14.34;57.45;101162.00;10287408;28;20421;-80
2022/09/20 16:59:06;;;;;;;1.60;0.60;;;;;;;14.57;57.09;101160.06;10290176;28;20051;-80
2022/09/20 17:04:10;;;;;;;3.00;0.63;;;;;;;14.55;57.08;101180.13;10298998;28;20038;-80
2022/09/20 17:09:15;;;;;;;3.40;0.70;;;;;;;14.27;58.00;101176.16;10323331;28;20054;-78
2022/09/20 17:14:20;;;;;;;2.83;0.98;;;;;;;13.89;58.85;101178.38;10322902;28;20050;-81
2022/09/20 17:19:25;;;;;;;2.83;0.70;;;;;;;13.58;60.12;101188.13;10296610;28;20058;-78
2022/09/20 17:24:29;;;;;;;3.55;0.70;;;;;;;13.29;61.04;101195.81;10297968;28;20066;-80
2022/09/20 17:29:33;;;;;;;4.07;0.82;;;;;;;13.08;62.05;101201.06;10294596;28;20090;-81
2022/09/20 17:34:36;;;;;;;2.15;0.75;;;;;;;12.85;62.29;101204.72;10300320;28;20114;-80
2022/09/20 17:39:39;;;;;;;5.72;1.23;;;;;;;12.51;63.40;101208.19;10306847;28;20073;-80
2022/09/20 17:44:44;;;;;;;1.80;0.82;;;;;;;11.90;66.59;101202.84;10302368;28;20047;-79
2022/09/20 17:49:46;;;;;;;5.88;2.28;;;;;;;11.86;66.82;101212.13;10300007;28;20121;-79
2022/09/20 17:54:49;;;;;;;;;;;;;;;11.79;67.01;101224.28;10298204;28;20065;-78
2022/09/20 17:59:53;;;;;;;3.95;1.85;;;;;;;11.77;66.98;101220.03;10300037;28;20457;-80
2022/09/20 18:04:56;;;;;;;3.85;0.93;;;;;;;11.41;68.14;101235.13;10320881;28;20043;-79
2022/09/20 18:09:59;;;;;;;2.20;1.02;;;;;;;11.33;68.47;101234.84;10302685;28;20055;-80
2022/09/20 18:15:04;;;;;;;6.95;1.48;;;;;;;11.14;69.33;101240.66;10295760;28;20047;-80
2022/09/20 18:20:09;;;;;;;3.65;1.83;;;;;;;11.09;69.71;101248.13;10294514;28;20070;-78
2022/09/20 18:25:12;;;;;;;4.38;1.35;;;;;;;11.13;69.36;101257.72;10278701;28;20035;-78
2022/09/20 18:30:16;;;;;;;5.15;1.25;;;;;;;10.92;69.89;101265.44;10261839;28;20051;-77
2022/09/20 18:35:19;;;;;;;6.07;1.52;;;;;;;10.82;70.04;101268.75;10286912;28;20078;-79
2022/09/20 18:40:22;;;;;;;7.18;1.67;;;;;;;10.68;70.32;101268.81;10303573;28;20062;-78
2022/09/20 18:45:26;;;;;;;;;;;;;;;10.70;69.79;101274.97;10282240;28;20051;-78
2022/09/20 18:50:29;;;;;;;5.88;1.73;;;;;;;10.61;69.71;101278.25;10288625;28;19930;-78
2022/09/20 18:55:33;;;;;;;;;;;;;;;10.57;69.77;101279.44;10265406;29;20162;-78
2022/09/20 19:00:37;;;;;;;7.20;1.95;;;;;;;10.54;69.44;101274.28;10296821;28;19922;-79
2022/09/20 19:05:43;;;;;;;7.53;1.95;;;;;;;10.48;69.19;101283.59;10313899;28;20070;-78
2022/09/20 19:10:52;;;;;;;3.45;1.65;;;;;;;10.49;68.99;101288.00;10297239;28;20074;-78
2022/09/20 19:16:15;;;;;;;4.22;1.70;;;;;;;10.37;69.65;101283.44;10292764;28;20503;-78
2022/09/20 19:21:25;;;;;;;5.70;1.70;;;;;;;10.33;70.03;101298.03;10291663;28;20372;-78
2022/09/20 19:26:30;;;;;;;8.82;2.35;;;;;;;10.32;70.03;101299.84;10298029;28;20065;-78
2022/09/20 19:31:35;;;;;;;6.88;1.88;;;;;;;9.94;71.43;101305.03;10306119;28;20046;-77
2022/09/20 19:36:48;;;;;;;2.38;1.70;;;;;;;9.75;72.15;101305.28;10311434;28;20046;-77
2022/09/20 19:42:06;;;;;;;10.13;2.20;;;;;;;9.55;72.79;101311.06;10288565;28;20049;-77
2022/09/20 19:47:21;;;;;;;4.05;2.22;;;;;;;9.60;72.84;101317.84;10276497;28;20121;-80
2022/09/20 19:52:24;;;;;;;5.57;2.05;;;;;;;9.68;72.56;101322.72;10274447;28;20034;-78
2022/09/20 19:57:34;;;;;;;3.58;2.08;;;;;;;9.78;71.98;101329.25;10291065;28;20042;-78
2022/09/20 20:02:38;;;;;;;3.50;1.90;;;;;;;9.85;71.61;101332.41;10291368;28;20046;-78
2022/09/20 20:07:48;;;;;;;6.15;1.90;;;;;;;9.88;70.95;101340.31;10288799;28;20035;-78
2022/09/20 20:12:59;;;;;;;4.22;2.20;;;;;;;9.82;70.59;101349.56;10292377;28;20459;-78
2022/09/20 20:18:10;;;;;;;5.00;1.90;;;;;;;9.73;70.50;101347.44;10305916;28;20050;-78
2022/09/20 20:23:43;;;;;;;5.28;2.28;;;;;;;9.76;70.77;101354.44;10283358;28;20071;-77
2022/09/20 20:28:46;;;;;;;6.00;3.20;;;;;;;9.79;70.61;101368.56;10272014;28;20125;-78
2022/09/20 20:33:50;;;;;;;5.22;3.17;;;;;;;9.72;70.55;101365.38;10258335;28;20075;-78
2022/09/20 20:38:53;;;;;;;9.02;3.72;;;;;;;9.70;70.62;101369.09;10269335;28;20046;-78
2022/09/20 20:43:56;;;;;;;8.70;3.70;;;;;;;9.64;70.75;101378.41;10282227;28;20094;-78
2022/09/20 20:49:01;;;;;;;9.93;4.15;;;;;;;9.55;70.69;101380.78;10285353;28;20053;-78
2022/09/20 20:54:04;;;;;;;6.80;4.43;;;;;;;9.46;71.16;101374.16;10288398;28;20129;-78
2022/09/20 20:59:07;;;;;;;10.02;4.82;;;;;;;9.36;71.13;101381.91;10289752;28;20042;-78
2022/09/20 21:04:12;;;;;;;6.38;3.90;;;;;;;9.18;72.10;101385.66;10312546;28;20051;-78
2022/09/20 21:09:15;;;;;;;9.55;3.88;;;;;;;9.10;72.73;101385.25;10289828;28;20051;-78
2022/09/20 21:14:18;;;;;;;7.20;3.35;;;;;;;9.02;72.81;101386.59;10290061;28;20070;-78
2022/09/20 21:19:22;;;;;;;;;;;;;;;9.06;72.68;101395.31;10289078;28;20126;-78
2022/09/20 21:24:25;;;;;;;5.35;2.90;;;;;;;9.03;73.26;101391.00;10278470;28;19977;-78
2022/09/20 21:29:28;;;;;;;;;;;;;;;9.11;73.18;101395.91;10263122;28;20118;-78
2022/09/20 21:34:32;;;;;;;5.78;3.08;;;;;;;9.14;72.99;101400.22;10277935;28;19945;-78
2022/09/20 21:39:35;;;;;;;6.80;4.10;;;;;;;9.12;72.51;101400.31;10292465;28;20400;-78
2022/09/20 21:44:41;;;;;;;;;;;;;;;8.94;72.98;101409.41;10279618;28;20095;-78
2022/09/20 21:49:45;;;;;;;6.88;4.97;;;;;;;8.84;73.10;101412.63;10276409;28;19922;-78
2022/09/20 21:54:48;;;;;;;9.15;5.50;;;;;;;8.82;73.07;101417.22;10275268;28;20067;-78
2022/09/20 21:59:51;;;;;;;5.43;4.50;;;;;;;8.69;72.82;101418.00;10289693;28;20387;-78
2022/09/20 22:04:55;;;;;;;;;;;;;;;8.59;73.36;101418.53;10278223;28;20114;-78
2022/09/20 22:09:57;;;;;;;6.00;2.53;;;;;;;8.50;73.58;101428.88;10280445;28;19926;-77
2022/09/20 22:15:00;;;;;;;;;;;;;;;8.45;74.19;101428.22;10275560;28;20102;-78
2022/09/20 22:20:05;;;;;;;4.78;3.30;;;;;;;8.48;74.43;101433.47;10257165;28;19927;-78
2022/09/20 22:25:09;;;;;;;3.92;2.05;;;;;;;8.48;73.92;101428.97;10264660;28;20476;-77
2022/09/20 22:30:12;;;;;;;4.38;2.95;;;;;;;8.45;73.57;101425.56;10278481;28;20047;-78
2022/09/20 22:35:17;;;;;;;8.13;3.28;;;;;;;8.37;73.89;101428.69;10276508;28;20069;-78
2022/09/20 22:40:20;;;;;;;6.65;3.83;;;;;;;8.30;73.84;101432.63;10278860;28;20720;-77
2022/09/20 22:45:23;;;;;;;5.68;3.25;;;;;;;8.25;73.49;101429.34;10274974;28;20039;-77
2022/09/20 22:50:27;;;;;;;;;;;;;;;8.19;73.55;101430.53;10278722;28;20049;-78
2022/09/20 22:55:30;;;;;;;5.97;3.30;;;;;;;8.12;73.25;101431.84;10278659;28;19922;-77
2022/09/20 23:00:33;;;;;;;4.75;3.33;;;;;;;8.06;73.30;101434.81;10269539;28;20129;-77
2022/09/20 23:05:40;;;;;;;7.75;3.95;;;;;;;7.99;73.60;101434.31;10287741;28;20133;-77
2022/09/20 23:10:43;;;;;;;6.20;3.95;;;;;;;8.09;73.68;101440.00;10273113;28;20528;-77
2022/09/20 23:15:45;;;;;;;;;;;;;;;8.16;73.33;101439.59;10281385;28;20066;-77
2022/09/20 23:20:57;;;;;;;10.30;3.97;;;;;;;8.13;73.09;101436.22;10268348;28;19922;-77
2022/09/20 23:26:07;;;;;;;5.18;3.97;;;;;;;7.99;73.52;101445.00;10255642;29;20158;-77
2022/09/20 23:31:12;;;;;;;6.90;4.45;;;;;;;7.90;73.48;101435.66;10268084;28;20575;-77
2022/09/20 23:36:17;;;;;;;10.15;4.90;;;;;;;7.82;73.96;101445.03;10256696;28;20075;-77
2022/09/20 23:41:22;;;;;;;11.77;5.38;;;;;;;7.49;74.59;101444.03;10262806;28;20126;-77
2022/09/20 23:46:26;;;;;;;5.43;4.43;;;;;;;7.41;74.82;101440.88;10287089;28;20081;-77
2022/09/20 23:51:31;;;;;;;6.07;4.32;;;;;;;7.47;75.04;101447.72;10273483;28;20050;-77
2022/09/20 23:56:34;;;;;;;6.93;4.63;;;;;;;7.49;74.87;101446.72;10265137;28;20043;-78
